Airfield :
LOGIN :

Register | Disclaimer

   EN    FR    IT 

 










Legend :    VFR   Marginal VFR   IFR   Intensive IFR   Very Intensive IFR
Visi :
Ceiling :
>= 8 km
>= 3000ft
5 to 8 km
1000 to 3000 ft
1500m to 5 km
500 to 1000 ft
800 to 1500m
200 to 500 ft
< 800m
< 200 ft
Symbols :   Thunderstorms  Fog  Heavy snow  Heavy precipitations  Wind > 20 kt
SIGMETs :     Misc.  Thunderstorms  Icing  Turbulence  Mountain Waves  Volcanic Ashes







- Airport Elevation : 1416 ft
- IATA code : ZRH


LSZH - Zurich

CURRENT METAR :
  • 200650Z 32006KT 9999 VCSH FEW050TCU BKN130 18/14 Q1015 TEMPO SHRA

EXPIRED METARs :
  • 200620Z VRB02KT CAVOK 18/14 Q1015 NOSIG
  • 200550Z 26003KT 230V320 CAVOK 18/14 Q1015 NOSIG
  • 200520Z VRB02KT CAVOK 18/14 Q1015 NOSIG
  • 200450Z VRB02KT CAVOK 18/14 Q1015 NOSIG

TAF TAF LSZH
Valid from the 20 at 06:00 until the 21 at 12:00 UTC


200525Z 2006/2112 24005KT CAVOK TX23/2014Z TN18/2006Z TN14/2104Z
PROB30
TEMPO 2006/2008 SHRA SCT070TCU
BECMG 2008/2011 9999 SCT060
TEMPO 2011/2020 26010KT SHRA SCT050TCU
PROB30
TEMPO 2013/2020 27015G25KT 4500 TSRA SCT030CB
TEMPO 2022/2104 CAVOK
TEMPO 2108/2112 SHRA SCT040TCU
ATIS : +41 43 816 2295 (DEP) +41 43 816 2294 (ARR)
No reported NOTAMs for that airfield.



MET'MAP, your aeronautical weather chart ! - Copyright ORBIFLY December 2007 - Disclaimer

ORBIFLY MET'MAP TEAM :

Programming & Development : Alexandra Zaïnal
Concept & Development : Baudouin d'Aumeries
Co-Development & Prog : Marc-Olivier Méhu
Technical & hardware support : Manuel Goepfert

Contact : metmap@orbifly.com




SOURCES & CREDITS :

   NOAA